This is the latest recevied weather packets stored in our database for station/object K1JO. If no packets are shown the sender has not sent any weather packets the latest 1 day(s).
| Time | Temp. | Humidity | Pressure | Rain* | Wind** | Luminosity | Snow |
|---|---|---|---|---|---|---|---|
| 1778078254 | 16.11° C | 80% | 1005.9 hPa | 0 mm | - | 348 W/m² | - |
| 1778077650 | 16.11° C | 81% | 1006.2 hPa | 0 mm | - | 271 W/m² | - |
| 1778076441 | 16.11° C | 81% | 1005.6 hPa | 0 mm | - | 209 W/m² | - |
| 1778075834 | 15.56° C | 81% | 1005.7 hPa | 0 mm | - | 235 W/m² | - |
| 1778074621 | 15.56° C | 81% | 1005.8 hPa | 0 mm | - | 231 W/m² | - |
| 1778074317 | 15.56° C | 81% | 1005.8 hPa | 0 mm | - | 254 W/m² | - |
| 1778073105 | 15° C | 82% | 1006.2 hPa | 0 mm | - | 326 W/m² | - |
| 1778071895 | 13.89° C | 85% | 1006.1 hPa | 0 mm | - | 230 W/m² | - |
| 1778071593 | 13.89° C | 85% | 1006.3 hPa | 0 mm | - | 225 W/m² | - |
| 1778069172 | 13.33° C | 85% | 1006.4 hPa | 0 mm | - | 175 W/m² | - |
| 1778068869 | 13.33° C | 87% | 1006.7 hPa | 0 mm | - | 191 W/m² | - |
| 1778068568 | 12.78° C | 86% | 1006.5 hPa | 0 mm | - | 179 W/m² | - |
| 1778065844 | 11.11° C | 91% | 1006.9 hPa | 0 mm | - | 117 W/m² | - |
| 1778065239 | 10.56° C | 92% | 1006.8 hPa | 0 mm | - | 56 W/m² | - |
| 1778064330 | 10.56° C | 93% | 1006.7 hPa | 0 mm | - | 19 W/m² | - |
| 1778064028 | 10.56° C | 93% | 1006.7 hPa | 0 mm | - | 16 W/m² | - |
| 1778063725 | 10.56° C | 93% | 1006.6 hPa | 0 mm | - | 12 W/m² | - |
| 1778063120 | 10.56° C | 93% | 1006.8 hPa | 0 mm | - | 10 W/m² | - |
| 1778062817 | 10.56° C | 92% | 1006.5 hPa | 0 mm | - | 8 W/m² | - |
| 1778061909 | 10° C | 93% | 1005.7 hPa | 0 mm | - | 7 W/m² | - |
| 1778060699 | 10° C | 93% | 1005.9 hPa | 0 mm | - | 11 W/m² | - |
| 1778059186 | 10° C | 93% | 1006.2 hPa | 0 mm | - | 1 W/m² | - |
| 1778058884 | 10° C | 92% | 1006.5 hPa | 0 mm | - | 0 W/m² | - |
| 1778058581 | 10° C | 92% | 1006.7 hPa | 0 mm | - | 0 W/m² | - |
| 1778058279 | 10° C | 92% | 1006.4 hPa | 0 mm | - | 0 W/m² | - |
* Rain latest hour (hover to see other rain measurements)
** Current wind speed in m/s (hover to see current wind gust speed)